VNKT/KTM METAR and TAF weather

Enter ICAO airport designator
Station Type Date Time Source
VNKT METAR 2019/10/18 11:50 UTC NOAA

VNKT 181150Z 27006KT 230V310 7000 FEW020 21/17 Q1019 NOSIG


Station Type Date Time Source
VNKT Decoded METAR 2019/10/18 11:50 UTC NOAA

Kathmandu Airport, Nepal (VNKT) 27-42N 085-22E 1337M
Oct 18, 2019 - 07:50 AM EDT / 2019.10.18 1150 UTC
Wind: from the W (270 degrees) at 7 MPH (6 KT) (direction variable):0
Visibility: 4 mile(s):0
Sky conditions: mostly clear
Temperature: 69 F (21 C)
Dew Point: 62 F (17 C)
Relative Humidity: 77%
Pressure (altimeter): 30.09 in. Hg (1019 hPa)
ob: VNKT 181150Z 27006KT 230V310 7000 FEW020 21/17 Q1019 NOSIG
cycle: 12

Station Type Date Time Source
VNKT TAF 2019/10/18 12:39 UTC NOAA

TAF TAF VNKT 181100Z 1812/1912 24006KT 7000 FEW020
BECMG 1814/1815 26003KT 6000 FEW015
BECMG 1900/1902 00000KT 5000 BR FEW010 SCT025
BECMG 1904/1905 13004KT 6000 FEW015 SCT025
BECMG 1907/1909 25008KT 8000 FEW020 SCT025

Example: see airport list